Reipetown, Nevada
Current Conditions -  °F | °C
As of 12:53 AM on Sunday 23 Nov 2014 (Local Time) from KELY Reporting Station
Few Clouds Few Clouds  
Wind Chill: 20°   Ceiling: Unl
Heat Index: 30°   Visibility: 10mi
Dew Point: 30°   Wind: 13mph
Humidity: 100%   Direction: 340°NNW
Pressure: 30.12"   Gusts: 25mph
Location:  39.2794°N, 114.987°W
Report Text: KELY 230853Z AUTO 34011G22KT 10SM FEW039 M01/M01 A3012 RMK AO2 SLP173 T10111011 51017 $
Loading
Personal Weather Stations






























Interactive Weather Map New forecast layout! Learn more

10-Day Weather Forecast

Advertisements
Track Severe Weather on mobile